Corpus Christi, TX

6:54 PM CDT on August 30, 2015 (GMT -0500)
Harlan's Annaville Weather Station | | Change Station
CLOSE
Current Station
Personal Weather Station
Location: Corpus Christi, TX
Elevation: 75 ft
Nearby Weather Stations

Elev 75 ft 27.85 °N, 97.60 °W | Updated 0 second ago

Partly Cloudy
Partly Cloudy
89.1 °F
Feels Like 99 °F
N
10.3
Wind Variable Wind from ESE
Gusts 13.6 mph

Today
High -- | Low -- °F
--% Chance of Precip.
Yesterday
High -- | Low -- °F
Precip. -- in
7:08 AM 7:53 PM
Full, 98% visible
Pressure 29.92 in
Visibility 10.0 miles
Clouds Clear
Heat Index 99 °F
Dew Point 74 °F
Humidity 62%
Rainfall 0.00 in
Snow Depth Not available.
UV 1 out of 12
Pollen 6.70 out of 12
Air Quality Not available.
Flu Activity Not available.
METAR KRBO 302335Z AUTO 14014G19KT 10SM CLR 33/21 A2992 RMK AO2 T03260213
Pressure 29.92 in
Visibility 10.0 miles
Clouds Clear
Heat Index 99 °F
Dew Point 74 °F
Humidity 62%
Rainfall 0.00 in
Snow Depth Not available.
UV 1 out of 12
Pollen 6.70 out of 12
Air Quality Not available.
Flu Activity Not available.
METAR KRBO 302335Z AUTO 14014G19KT 10SM CLR 33/21 A2992 RMK AO2 T03260213
Nowcast | as of 5:00 PM CDT on August 30, 2015

Isolated showers will continue over the middle Texas coastal waters this afternoon...mainly 10 to 60 nautical miles offshore of Port Oconnor to Baffin Bay. Isolated showers will develop over the interior areas of south Texas late this afternoon as well...generally west of a Beeville...Kingsville line. Through 7 PM CDT...expect a brief moderate to heavy rainfall...with little other impacts from these showers. Measurable precipitation will likely be less than a tenth of an inch...as the cells slowly drift to the west through north.

×

10-Day Weather Forecast

×

Almanac

Astronomy

Aug. 30, 2015 Rise Set
Actual Time
Civil Twilight
Nautical Twilight
Astronomical Twilight
Moon
Length of Visible Light
Length of Day
Tomorrow will be .
, % of the Moon is Illuminated

Today's Extremes

State Highs State Lows

Community

WunderPhotos

Upload Photos

1,851,095 photos uploaded!

WunderBlogs® & News

Nearby

Air Quality

  Air Quality AQ Index Pollutant
Not available.

Snow Depth

Station Depth Elevation

Earthquake Activity

City Distance Mag. Time & Date
Minimum magnitude displayed is 2.5.

Coastal Water Temperatures

Place Temperature

Stations

Nearby Weather Stations

Station Location Temp. Windchill Dew Point Humidity Wind Precip. Elev Updated Type